sensor_id;sensor_type;location;lat;lon;timestamp;pressure;altitude;pressure_sealevel;temperature;humidity
68476;BME280;55464;48.266;14.188;2023-04-03T00:01:27;98266.31;;;6.18;63.36
68476;BME280;55464;48.266;14.188;2023-04-03T00:03:52;98264.41;;;6.19;63.19
68476;BME280;55464;48.266;14.188;2023-04-03T00:06:18;98260.34;;;6.16;63.23
68476;BME280;55464;48.266;14.188;2023-04-03T00:08:43;98264.06;;;6.20;63.01
68476;BME280;55464;48.266;14.188;2023-04-03T00:11:09;98265.22;;;6.19;62.98
68476;BME280;55464;48.266;14.188;2023-04-03T00:13:35;98264.41;;;6.19;63.75
68476;BME280;55464;48.266;14.188;2023-04-03T00:16:01;98268.25;;;6.18;64.56
68476;BME280;55464;48.266;14.188;2023-04-03T00:18:27;98260.44;;;6.11;63.39
68476;BME280;55464;48.266;14.188;2023-04-03T00:20:52;98265.59;;;6.13;64.20
68476;BME280;55464;48.266;14.188;2023-04-03T00:23:18;98261.03;;;6.08;64.39
68476;BME280;55464;48.266;14.188;2023-04-03T00:25:43;98264.69;;;6.03;64.33
68476;BME280;55464;48.266;14.188;2023-04-03T00:28:09;98271.97;;;6.08;63.70
68476;BME280;55464;48.266;14.188;2023-04-03T00:30:35;98264.41;;;6.05;64.05
68476;BME280;55464;48.266;14.188;2023-04-03T00:33:00;98279.09;;;6.09;64.10
68476;BME280;55464;48.266;14.188;2023-04-03T00:35:27;98273.63;;;6.09;64.46
68476;BME280;55464;48.266;14.188;2023-04-03T00:37:53;98270.88;;;6.09;64.57
68476;BME280;55464;48.266;14.188;2023-04-03T00:40:20;98258.28;;;6.08;64.79
68476;BME280;55464;48.266;14.188;2023-04-03T00:42:48;98266.81;;;6.06;64.80
68476;BME280;55464;48.266;14.188;2023-04-03T00:47:50;98262.97;;;6.08;64.03
68476;BME280;55464;48.266;14.188;2023-04-03T00:50:16;98267.34;;;6.09;64.70
68476;BME280;55464;48.266;14.188;2023-04-03T00:52:42;98266.31;;;6.04;64.07
68476;BME280;55464;48.266;14.188;2023-04-03T00:55:11;98263.56;;;6.04;64.32
68476;BME280;55464;48.266;14.188;2023-04-03T00:57:37;98267.72;;;6.02;64.56
68476;BME280;55464;48.266;14.188;2023-04-03T01:00:11;98269.13;;;5.99;64.65
68476;BME280;55464;48.266;14.188;2023-04-03T01:02:38;98269.97;;;6.00;64.60
68476;BME280;55464;48.266;14.188;2023-04-03T01:05:06;98266.41;;;5.99;65.22
68476;BME280;55464;48.266;14.188;2023-04-03T01:07:32;98262.63;;;5.95;66.17
68476;BME280;55464;48.266;14.188;2023-04-03T01:10:03;98277.13;;;5.96;66.18
68476;BME280;55464;48.266;14.188;2023-04-03T01:12:32;98268.09;;;5.95;66.20
68476;BME280;55464;48.266;14.188;2023-04-03T01:15:01;98279.34;;;5.94;65.99
68476;BME280;55464;48.266;14.188;2023-04-03T01:25:31;98277.28;;;5.85;64.69
68476;BME280;55464;48.266;14.188;2023-04-03T01:27:56;98288.22;;;5.85;65.28
68476;BME280;55464;48.266;14.188;2023-04-03T01:30:27;98283.28;;;5.87;65.02
68476;BME280;55464;48.266;14.188;2023-04-03T01:32:56;98292.31;;;5.88;65.28
68476;BME280;55464;48.266;14.188;2023-04-03T01:35:21;98300.00;;;5.86;65.46
68476;BME280;55464;48.266;14.188;2023-04-03T01:37:46;98289.34;;;5.84;65.35
68476;BME280;55464;48.266;14.188;2023-04-03T01:40:12;98290.66;;;5.87;65.87
68476;BME280;55464;48.266;14.188;2023-04-03T01:42:38;98294.25;;;5.87;65.64
68476;BME280;55464;48.266;14.188;2023-04-03T01:45:03;98296.97;;;5.87;66.46
68476;BME280;55464;48.266;14.188;2023-04-03T01:47:29;98298.56;;;5.88;66.07
68476;BME280;55464;48.266;14.188;2023-04-03T01:49:54;98300.50;;;5.88;66.07
68476;BME280;55464;48.266;14.188;2023-04-03T01:52:20;98299.72;;;5.87;65.82
68476;BME280;55464;48.266;14.188;2023-04-03T01:54:45;98299.72;;;5.87;65.58
68476;BME280;55464;48.266;14.188;2023-04-03T01:57:10;98297.78;;;5.88;65.90
68476;BME280;55464;48.266;14.188;2023-04-03T01:59:36;98298.28;;;5.90;65.65
68476;BME280;55464;48.266;14.188;2023-04-03T02:02:02;98299.09;;;5.91;65.97
68476;BME280;55464;48.266;14.188;2023-04-03T02:04:27;98288.75;;;5.87;64.55
68476;BME280;55464;48.266;14.188;2023-04-03T02:06:53;98292.31;;;5.88;64.19
68476;BME280;55464;48.266;14.188;2023-04-03T02:09:18;98298.88;;;5.87;64.54
68476;BME280;55464;48.266;14.188;2023-04-03T02:11:43;98286.31;;;5.86;65.15
68476;BME280;55464;48.266;14.188;2023-04-03T02:14:09;98291.28;;;5.84;64.81
68476;BME280;55464;48.266;14.188;2023-04-03T02:16:34;98291.78;;;5.86;64.65
68476;BME280;55464;48.266;14.188;2023-04-03T02:19:00;98290.97;;;5.85;64.94
68476;BME280;55464;48.266;14.188;2023-04-03T02:21:25;98290.66;;;5.87;64.55
68476;BME280;55464;48.266;14.188;2023-04-03T02:23:51;98288.75;;;5.87;64.88
68476;BME280;55464;48.266;14.188;2023-04-03T02:26:16;98294.53;;;5.86;64.48
68476;BME280;55464;48.266;14.188;2023-04-03T02:28:42;98292.91;;;5.85;64.54
68476;BME280;55464;48.266;14.188;2023-04-03T02:31:08;98290.16;;;5.85;64.94
68476;BME280;55464;48.266;14.188;2023-04-03T02:33:35;98299.50;;;5.84;64.89
68476;BME280;55464;48.266;14.188;2023-04-03T02:36:02;98293.50;;;5.82;65.62
68476;BME280;55464;48.266;14.188;2023-04-03T02:38:28;98286.72;;;5.79;65.17
68476;BME280;55464;48.266;14.188;2023-04-03T02:40:59;98283.56;;;5.72;65.31
68476;BME280;55464;48.266;14.188;2023-04-03T02:43:25;98295.50;;;5.76;65.24
68476;BME280;55464;48.266;14.188;2023-04-03T02:45:50;98290.63;;;5.73;66.16
68476;BME280;55464;48.266;14.188;2023-04-03T02:48:16;98288.22;;;5.72;65.76
68476;BME280;55464;48.266;14.188;2023-04-03T02:50:42;98288.00;;;5.68;65.50
68476;BME280;55464;48.266;14.188;2023-04-03T02:53:07;98297.81;;;5.69;65.39
68476;BME280;55464;48.266;14.188;2023-04-03T02:55:32;98291.56;;;5.68;65.28
68476;BME280;55464;48.266;14.188;2023-04-03T02:57:58;98284.75;;;5.66;64.39
68476;BME280;55464;48.266;14.188;2023-04-03T03:00:23;98287.47;;;5.66;63.78
68476;BME280;55464;48.266;14.188;2023-04-03T03:02:49;98297.91;;;5.64;63.72
68476;BME280;55464;48.266;14.188;2023-04-03T03:05:14;98292.22;;;5.60;63.23
68476;BME280;55464;48.266;14.188;2023-04-03T03:07:40;98293.03;;;5.61;63.26
68476;BME280;55464;48.266;14.188;2023-04-03T03:10:06;98292.22;;;5.60;63.76
68476;BME280;55464;48.266;14.188;2023-04-03T03:12:31;98296.31;;;5.63;62.92
68476;BME280;55464;48.266;14.188;2023-04-03T03:14:56;98291.94;;;5.62;62.03
68476;BME280;55464;48.266;14.188;2023-04-03T03:17:22;98297.09;;;5.63;61.99
68476;BME280;55464;48.266;14.188;2023-04-03T03:19:47;98294.38;;;5.63;62.53
68476;BME280;55464;48.266;14.188;2023-04-03T03:22:13;98295.69;;;5.66;62.53
68476;BME280;55464;48.266;14.188;2023-04-03T03:24:38;98298.13;;;5.67;63.27
68476;BME280;55464;48.266;14.188;2023-04-03T03:27:03;98295.97;;;5.64;63.98
68476;BME280;55464;48.266;14.188;2023-04-03T03:29:29;98285.03;;;5.64;64.65
68476;BME280;55464;48.266;14.188;2023-04-03T03:31:54;98301.78;;;5.63;64.02
68476;BME280;55464;48.266;14.188;2023-04-03T03:34:20;98292.22;;;5.60;63.87
68476;BME280;55464;48.266;14.188;2023-04-03T03:36:45;98291.13;;;5.61;64.19
68476;BME280;55464;48.266;14.188;2023-04-03T03:39:12;98287.28;;;5.62;62.74
68476;BME280;55464;48.266;14.188;2023-04-03T03:41:38;98286.47;;;5.62;62.86
68476;BME280;55464;48.266;14.188;2023-04-03T03:44:03;98286.69;;;5.65;62.47
68476;BME280;55464;48.266;14.188;2023-04-03T03:46:28;98275.31;;;5.58;62.56
68476;BME280;55464;48.266;14.188;2023-04-03T03:48:54;98293.25;;;5.64;62.39
68476;BME280;55464;48.266;14.188;2023-04-03T03:51:19;98291.63;;;5.63;61.86
68476;BME280;55464;48.266;14.188;2023-04-03T03:53:45;98291.06;;;5.66;61.89
68476;BME280;55464;48.266;14.188;2023-04-03T03:56:10;98294.38;;;5.63;62.26
68476;BME280;55464;48.266;14.188;2023-04-03T03:58:36;98303.69;;;5.62;64.00
68476;BME280;55464;48.266;14.188;2023-04-03T04:01:05;98294.97;;;5.60;64.91
68476;BME280;55464;48.266;14.188;2023-04-03T04:03:32;98298.81;;;5.59;63.31
68476;BME280;55464;48.266;14.188;2023-04-03T04:05:57;98291.22;;;5.56;63.34
68476;BME280;55464;48.266;14.188;2023-04-03T04:08:23;98287.13;;;5.54;62.86
68476;BME280;55464;48.266;14.188;2023-04-03T04:10:49;98285.75;;;5.56;63.35
68476;BME280;55464;48.266;14.188;2023-04-03T04:13:14;98289.88;;;5.54;63.29
68476;BME280;55464;48.266;14.188;2023-04-03T04:15:40;98295.56;;;5.57;61.42
68476;BME280;55464;48.266;14.188;2023-04-03T04:18:05;98290.38;;;5.56;60.63
68476;BME280;55464;48.266;14.188;2023-04-03T04:20:31;98289.28;;;5.57;61.04
68476;BME280;55464;48.266;14.188;2023-04-03T04:22:56;98291.72;;;5.58;60.69
68476;BME280;55464;48.266;14.188;2023-04-03T04:25:21;98286.84;;;5.55;61.11
68476;BME280;55464;48.266;14.188;2023-04-03T04:27:47;98290.91;;;5.58;61.11
68476;BME280;55464;48.266;14.188;2023-04-03T04:30:13;98293.66;;;5.58;61.00
68476;BME280;55464;48.266;14.188;2023-04-03T04:32:38;98295.56;;;5.57;61.09
68476;BME280;55464;48.266;14.188;2023-04-03T04:35:04;98300.22;;;5.57;61.38
68476;BME280;55464;48.266;14.188;2023-04-03T04:37:30;98304.38;;;5.54;62.26
68476;BME280;55464;48.266;14.188;2023-04-03T04:39:55;98295.97;;;5.51;62.57
68476;BME280;55464;48.266;14.188;2023-04-03T04:42:21;98309.84;;;5.54;62.86
68476;BME280;55464;48.266;14.188;2023-04-03T04:44:46;98302.25;;;5.51;62.79
68476;BME280;55464;48.266;14.188;2023-04-03T04:47:11;98309.31;;;5.52;62.85
68476;BME280;55464;48.266;14.188;2023-04-03T04:49:37;98304.16;;;5.51;62.72
68476;BME280;55464;48.266;14.188;2023-04-03T04:52:02;98312.38;;;5.51;62.52
68476;BME280;55464;48.266;14.188;2023-04-03T04:54:28;98309.09;;;5.48;62.05
68476;BME280;55464;48.266;14.188;2023-04-03T04:56:53;98317.63;;;5.47;61.98
68476;BME280;55464;48.266;14.188;2023-04-03T04:59:19;98315.69;;;5.47;62.28
68476;BME280;55464;48.266;14.188;2023-04-03T05:01:44;98308.97;;;5.40;62.22
68476;BME280;55464;48.266;14.188;2023-04-03T05:04:10;98327.50;;;5.43;62.37
68476;BME280;55464;48.266;14.188;2023-04-03T05:06:37;98319.53;;;5.46;62.80
68476;BME280;55464;48.266;14.188;2023-04-03T05:09:03;98324.78;;;5.43;63.19
68476;BME280;55464;48.266;14.188;2023-04-03T05:11:28;98318.78;;;5.41;62.85
68476;BME280;55464;48.266;14.188;2023-04-03T05:13:53;98316.56;;;5.43;62.87
68476;BME280;55464;48.266;14.188;2023-04-03T05:16:19;98311.69;;;5.40;63.22
68476;BME280;55464;48.266;14.188;2023-04-03T05:18:44;98319.59;;;5.41;63.31
68476;BME280;55464;48.266;14.188;2023-04-03T05:21:10;98324.78;;;5.43;63.29
68476;BME280;55464;48.266;14.188;2023-04-03T05:23:35;98323.97;;;5.42;63.37
68476;BME280;55464;48.266;14.188;2023-04-03T05:26:01;98316.06;;;5.41;63.35
68476;BME280;55464;48.266;14.188;2023-04-03T05:28:26;98333.28;;;5.41;63.00
68476;BME280;55464;48.266;14.188;2023-04-03T05:30:56;98320.94;;;5.44;63.09
68476;BME280;55464;48.266;14.188;2023-04-03T05:33:22;98317.91;;;5.45;62.69
68476;BME280;55464;48.266;14.188;2023-04-03T05:35:48;98320.66;;;5.45;63.03
68476;BME280;55464;48.266;14.188;2023-04-03T05:38:13;98331.81;;;5.49;62.95
68476;BME280;55464;48.266;14.188;2023-04-03T05:40:39;98324.41;;;5.49;63.16
68476;BME280;55464;48.266;14.188;2023-04-03T05:43:04;98330.09;;;5.53;62.22
68476;BME280;55464;48.266;14.188;2023-04-03T05:45:30;98322.97;;;5.52;62.57
68476;BME280;55464;48.266;14.188;2023-04-03T05:47:56;98319.75;;;5.50;62.61
68476;BME280;55464;48.266;14.188;2023-04-03T05:50:22;98325.41;;;5.54;63.20
68476;BME280;55464;48.266;14.188;2023-04-03T05:52:49;98330.69;;;5.50;62.85
68476;BME280;55464;48.266;14.188;2023-04-03T05:55:15;98329.88;;;5.49;62.80
68476;BME280;55464;48.266;14.188;2023-04-03T05:57:41;98344.84;;;5.52;62.76
68476;BME280;55464;48.266;14.188;2023-04-03T06:00:07;98334.25;;;5.51;62.33
68476;BME280;55464;48.266;14.188;2023-04-03T06:02:35;98349.81;;;5.50;62.33
68476;BME280;55464;48.266;14.188;2023-04-03T06:05:01;98347.38;;;5.48;62.50
68476;BME280;55464;48.266;14.188;2023-04-03T06:07:27;98344.13;;;5.46;62.34
68476;BME280;55464;48.266;14.188;2023-04-03T06:09:55;98345.03;;;5.42;62.48
68476;BME280;55464;48.266;14.188;2023-04-03T06:12:21;98354.03;;;5.42;63.43
68476;BME280;55464;48.266;14.188;2023-04-03T06:14:47;98352.19;;;5.38;63.69
68476;BME280;55464;48.266;14.188;2023-04-03T06:17:13;98356.06;;;5.37;64.01
68476;BME280;55464;48.266;14.188;2023-04-03T06:19:39;98353.03;;;5.38;64.14
68476;BME280;55464;48.266;14.188;2023-04-03T06:22:04;98348.66;;;5.37;64.30
68476;BME280;55464;48.266;14.188;2023-04-03T06:24:31;98349.25;;;5.34;63.87
68476;BME280;55464;48.266;14.188;2023-04-03T06:26:57;98364.75;;;5.39;64.09
68476;BME280;55464;48.266;14.188;2023-04-03T06:29:23;98363.13;;;5.38;64.51
68476;BME280;55464;48.266;14.188;2023-04-03T06:31:49;98375.47;;;5.35;64.79
68476;BME280;55464;48.266;14.188;2023-04-03T06:34:15;98371.31;;;5.38;64.42
68476;BME280;55464;48.266;14.188;2023-04-03T06:36:41;98374.56;;;5.40;63.69
68476;BME280;55464;48.266;14.188;2023-04-03T06:39:06;98373.75;;;5.39;63.92
68476;BME280;55464;48.266;14.188;2023-04-03T06:41:32;98377.00;;;5.41;63.58
68476;BME280;55464;48.266;14.188;2023-04-03T06:43:58;98382.19;;;5.43;63.79
68476;BME280;55464;48.266;14.188;2023-04-03T06:46:26;98379.97;;;5.45;63.47
68476;BME280;55464;48.266;14.188;2023-04-03T06:48:53;98383.00;;;5.43;63.29
68476;BME280;55464;48.266;14.188;2023-04-03T06:51:21;98385.44;;;5.45;63.57
68476;BME280;55464;48.266;14.188;2023-04-03T06:53:48;98388.47;;;5.43;64.02
68476;BME280;55464;48.266;14.188;2023-04-03T06:56:14;98384.91;;;5.43;64.29
68476;BME280;55464;48.266;14.188;2023-04-03T06:58:40;98383.31;;;5.42;64.83
68476;BME280;55464;48.266;14.188;2023-04-03T07:01:06;98381.09;;;5.44;65.19
68476;BME280;55464;48.266;14.188;2023-04-03T07:03:31;98394.16;;;5.47;65.22
68476;BME280;55464;48.266;14.188;2023-04-03T07:05:56;98387.59;;;5.48;65.37
68476;BME280;55464;48.266;14.188;2023-04-03T07:08:22;98390.81;;;5.50;65.16
68476;BME280;55464;48.266;14.188;2023-04-03T07:10:49;98386.78;;;5.47;65.09
68476;BME280;55464;48.266;14.188;2023-04-03T07:13:15;98398.72;;;5.52;64.23
68476;BME280;55464;48.266;14.188;2023-04-03T07:15:40;98395.19;;;5.51;64.31
68476;BME280;55464;48.266;14.188;2023-04-03T07:18:06;98401.47;;;5.52;64.40
68476;BME280;55464;48.266;14.188;2023-04-03T07:20:31;98407.84;;;5.47;64.76
68476;BME280;55464;48.266;14.188;2023-04-03T07:22:57;98412.41;;;5.52;64.53
68476;BME280;55464;48.266;14.188;2023-04-03T07:25:22;98402.38;;;5.47;64.79
68476;BME280;55464;48.266;14.188;2023-04-03T07:27:48;98411.09;;;5.49;64.55
68476;BME280;55464;48.266;14.188;2023-04-03T07:30:14;98420.03;;;5.55;64.44
68476;BME280;55464;48.266;14.188;2023-04-03T07:32:40;98417.59;;;5.53;65.25
68476;BME280;55464;48.266;14.188;2023-04-03T07:35:05;98423.28;;;5.57;65.22
68476;BME280;55464;48.266;14.188;2023-04-03T07:37:31;98421.41;;;5.52;64.92
68476;BME280;55464;48.266;14.188;2023-04-03T07:39:57;98428.81;;;5.52;64.92
68476;BME280;55464;48.266;14.188;2023-04-03T07:42:24;98435.41;;;5.51;65.14
68476;BME280;55464;48.266;14.188;2023-04-03T07:44:51;98440.09;;;5.45;65.48
68476;BME280;55464;48.266;14.188;2023-04-03T07:47:17;98437.16;;;5.41;66.09
68476;BME280;55464;48.266;14.188;2023-04-03T07:49:43;98434.41;;;5.41;65.49
68476;BME280;55464;48.266;14.188;2023-04-03T07:52:09;98430.72;;;5.32;65.05
68476;BME280;55464;48.266;14.188;2023-04-03T07:54:34;98440.25;;;5.35;64.73
68476;BME280;55464;48.266;14.188;2023-04-03T07:57:00;98439.44;;;5.34;64.53
68476;BME280;55464;48.266;14.188;2023-04-03T07:59:26;98437.28;;;5.31;64.25
68476;BME280;55464;48.266;14.188;2023-04-03T08:01:51;98443.28;;;5.33;64.46
68476;BME280;55464;48.266;14.188;2023-04-03T08:04:17;98443.81;;;5.35;64.58
68476;BME280;55464;48.266;14.188;2023-04-03T08:06:42;98438.13;;;5.32;64.69
68476;BME280;55464;48.266;14.188;2023-04-03T08:09:08;98442.69;;;5.36;64.88
68476;BME280;55464;48.266;14.188;2023-04-03T08:11:33;98435.91;;;5.34;65.12
68476;BME280;55464;48.266;14.188;2023-04-03T08:13:59;98441.59;;;5.37;65.67
68476;BME280;55464;48.266;14.188;2023-04-03T08:16:24;98441.38;;;5.34;65.46
68476;BME280;55464;48.266;14.188;2023-04-03T08:18:53;98442.69;;;5.36;65.41
68476;BME280;55464;48.266;14.188;2023-04-03T08:21:19;98441.81;;;5.41;64.70
68476;BME280;55464;48.266;14.188;2023-04-03T08:23:48;98438.00;;;5.42;64.85
68476;BME280;55464;48.266;14.188;2023-04-03T08:26:15;98435.47;;;5.45;64.06
68476;BME280;55464;48.266;14.188;2023-04-03T08:28:41;98444.19;;;5.47;63.99
68476;BME280;55464;48.266;14.188;2023-04-03T08:31:10;98447.44;;;5.49;63.15
68476;BME280;55464;48.266;14.188;2023-04-03T08:33:38;98443.06;;;5.48;62.94
68476;BME280;55464;48.266;14.188;2023-04-03T08:36:05;98450.75;;;5.46;61.26
68476;BME280;55464;48.266;14.188;2023-04-03T08:38:31;98445.78;;;5.48;60.29
68476;BME280;55464;48.266;14.188;2023-04-03T08:41:10;98442.25;;;5.48;60.37
68476;BME280;55464;48.266;14.188;2023-04-03T08:46:14;98451.19;;;5.54;60.05
68476;BME280;55464;48.266;14.188;2023-04-03T08:48:43;98458.88;;;5.52;60.45
68476;BME280;55464;48.266;14.188;2023-04-03T08:51:17;98449.28;;;5.54;59.26
68476;BME280;55464;48.266;14.188;2023-04-03T08:54:01;98455.06;;;5.53;58.58
68476;BME280;55464;48.266;14.188;2023-04-03T08:56:30;98450.31;;;5.58;58.78
68476;BME280;55464;48.266;14.188;2023-04-03T08:59:04;98445.88;;;5.62;58.20
68476;BME280;55464;48.266;14.188;2023-04-03T09:01:36;98442.56;;;5.65;58.58
68476;BME280;55464;48.266;14.188;2023-04-03T09:04:05;98444.72;;;5.68;58.39
68476;BME280;55464;48.266;14.188;2023-04-03T09:06:35;98443.28;;;5.71;58.07
68476;BME280;55464;48.266;14.188;2023-04-03T09:12:18;98445.94;;;5.76;59.08
68476;BME280;55464;48.266;14.188;2023-04-03T09:14:53;98450.53;;;5.81;58.92
68476;BME280;55464;48.266;14.188;2023-04-03T09:22:38;98459.47;;;5.86;56.72
68476;BME280;55464;48.266;14.188;2023-04-03T09:25:21;98454.00;;;5.86;56.57
68476;BME280;55464;48.266;14.188;2023-04-03T09:27:47;98454.81;;;5.87;57.06
68476;BME280;55464;48.266;14.188;2023-04-03T09:30:19;98456.38;;;5.93;57.22
68476;BME280;55464;48.266;14.188;2023-04-03T09:32:46;98458.25;;;5.98;56.71
68476;BME280;55464;48.266;14.188;2023-04-03T09:35:23;98452.47;;;5.99;57.48
68476;BME280;55464;48.266;14.188;2023-04-03T09:40:47;98446.09;;;6.04;57.96
68476;BME280;55464;48.266;14.188;2023-04-03T09:45:44;98446.66;;;6.20;57.85
68476;BME280;55464;48.266;14.188;2023-04-03T10:01:34;98444.53;;;6.63;58.62
68476;BME280;55464;48.266;14.188;2023-04-03T10:06:45;98431.94;;;6.76;60.04
68476;BME280;55464;48.266;14.188;2023-04-03T10:09:27;98442.81;;;6.81;58.18
68476;BME280;55464;48.266;14.188;2023-04-03T10:12:07;98446.06;;;6.84;57.97
68476;BME280;55464;48.266;14.188;2023-04-03T10:14:36;98440.78;;;6.87;58.49
68476;BME280;55464;48.266;14.188;2023-04-03T10:28:48;98441.50;;;6.79;56.10
68476;BME280;55464;48.266;14.188;2023-04-03T10:31:29;98433.59;;;6.77;54.84
68476;BME280;55464;48.266;14.188;2023-04-03T10:34:06;98432.47;;;6.78;55.87
68476;BME280;55464;48.266;14.188;2023-04-03T10:37:10;98435.22;;;6.78;54.72
68476;BME280;55464;48.266;14.188;2023-04-03T10:39:46;98425.38;;;6.77;55.67
68476;BME280;55464;48.266;14.188;2023-04-03T10:45:24;98438.47;;;6.80;55.72
68476;BME280;55464;48.266;14.188;2023-04-03T10:47:59;98430.03;;;6.77;55.11
68476;BME280;55464;48.266;14.188;2023-04-03T10:53:03;98431.94;;;6.76;54.15
68476;BME280;55464;48.266;14.188;2023-04-03T10:55:48;98441.91;;;6.72;54.72
68476;BME280;55464;48.266;14.188;2023-04-03T10:58:27;98436.44;;;6.72;55.28
68476;BME280;55464;48.266;14.188;2023-04-03T11:00:59;98438.06;;;6.73;55.40
68476;BME280;55464;48.266;14.188;2023-04-03T11:03:35;98420.09;;;6.67;55.58
68476;BME280;55464;48.266;14.188;2023-04-03T11:06:05;98424.66;;;6.72;55.48
68476;BME280;55464;48.266;14.188;2023-04-03T11:11:06;98429.75;;;6.78;55.04
68476;BME280;55464;48.266;14.188;2023-04-03T11:16:02;98425.38;;;6.77;55.21
68476;BME280;55464;48.266;14.188;2023-04-03T11:18:43;98423.22;;;6.74;54.58
68476;BME280;55464;48.266;14.188;2023-04-03T11:21:19;98432.88;;;6.72;54.78
68476;BME280;55464;48.266;14.188;2023-04-03T11:23:47;98432.38;;;6.70;55.20
68476;BME280;55464;48.266;14.188;2023-04-03T11:26:15;98431.63;;;6.64;55.28
68476;BME280;55464;48.266;14.188;2023-04-03T11:28:41;98430.03;;;6.63;55.08
68476;BME280;55464;48.266;14.188;2023-04-03T11:31:19;98419.97;;;6.58;54.92
68476;BME280;55464;48.266;14.188;2023-04-03T11:36:52;98424.72;;;6.39;54.59
68476;BME280;55464;48.266;14.188;2023-04-03T11:39:54;98420.88;;;6.40;54.56
68476;BME280;55464;48.266;14.188;2023-04-03T11:42:55;98426.13;;;6.36;54.98
68476;BME280;55464;48.266;14.188;2023-04-03T11:48:01;98428.03;;;6.36;54.99
68476;BME280;55464;48.266;14.188;2023-04-03T11:50:44;98424.59;;;6.30;54.96
68476;BME280;55464;48.266;14.188;2023-04-03T11:58:28;98432.59;;;6.27;53.42
68476;BME280;55464;48.266;14.188;2023-04-03T12:00:56;98423.88;;;6.24;54.03
68476;BME280;55464;48.266;14.188;2023-04-03T12:05:47;98434.00;;;6.24;54.48
68476;BME280;55464;48.266;14.188;2023-04-03T12:13:40;98427.88;;;6.13;51.67
68476;BME280;55464;48.266;14.188;2023-04-03T12:16:07;98424.03;;;6.14;51.75
68476;BME280;55464;48.266;14.188;2023-04-03T12:21:14;98426.09;;;6.22;51.77
68476;BME280;55464;48.266;14.188;2023-04-03T12:29:29;98424.88;;;6.29;52.76
68476;BME280;55464;48.266;14.188;2023-04-03T12:34:49;98421.56;;;6.32;51.85
68476;BME280;55464;48.266;14.188;2023-04-03T12:48:14;98423.91;;;6.38;50.67
68476;BME280;55464;48.266;14.188;2023-04-03T12:50:41;98417.31;;;6.39;50.90
68476;BME280;55464;48.266;14.188;2023-04-03T12:53:19;98405.34;;;6.35;52.37
68476;BME280;55464;48.266;14.188;2023-04-03T12:55:46;98416.72;;;6.42;52.19
68476;BME280;55464;48.266;14.188;2023-04-03T12:58:23;98412.34;;;6.41;50.32
68476;BME280;55464;48.266;14.188;2023-04-03T13:01:12;98414.25;;;6.41;49.99
68476;BME280;55464;48.266;14.188;2023-04-03T13:03:43;98410.94;;;6.44;49.73
68476;BME280;55464;48.266;14.188;2023-04-03T13:06:42;98410.13;;;6.43;50.35
68476;BME280;55464;48.266;14.188;2023-04-03T13:09:29;98405.88;;;6.65;52.24
68476;BME280;55464;48.266;14.188;2023-04-03T13:12:02;98406.78;;;6.88;52.07
68476;BME280;55464;48.266;14.188;2023-04-03T13:14:29;98402.94;;;7.03;52.86
68476;BME280;55464;48.266;14.188;2023-04-03T13:17:03;98393.75;;;7.22;52.71
68476;BME280;55464;48.266;14.188;2023-04-03T13:19:29;98404.19;;;7.47;52.94
68476;BME280;55464;48.266;14.188;2023-04-03T13:22:00;98401.78;;;7.68;51.88
68476;BME280;55464;48.266;14.188;2023-04-03T13:24:26;98396.13;;;7.87;50.31
68476;BME280;55464;48.266;14.188;2023-04-03T13:26:54;98397.66;;;8.02;50.98
68476;BME280;55464;48.266;14.188;2023-04-03T13:29:27;98390.28;;;8.11;49.20
68476;BME280;55464;48.266;14.188;2023-04-03T13:31:55;98387.09;;;8.18;49.40
68476;BME280;55464;48.266;14.188;2023-04-03T13:34:22;98395.56;;;8.30;50.38
68476;BME280;55464;48.266;14.188;2023-04-03T13:39:32;98401.59;;;8.41;47.74
68476;BME280;55464;48.266;14.188;2023-04-03T13:42:00;98402.69;;;8.31;46.92
68476;BME280;55464;48.266;14.188;2023-04-03T13:44:33;98390.16;;;8.17;46.29
68476;BME280;55464;48.266;14.188;2023-04-03T13:47:20;98390.75;;;8.05;46.61
68476;BME280;55464;48.266;14.188;2023-04-03T13:50:03;98387.56;;;7.89;46.64
68476;BME280;55464;48.266;14.188;2023-04-03T13:52:39;98386.88;;;7.83;46.85
68476;BME280;55464;48.266;14.188;2023-04-03T14:00:45;98380.41;;;8.33;47.67
68476;BME280;55464;48.266;14.188;2023-04-03T14:03:33;98381.72;;;8.36;46.91
68476;BME280;55464;48.266;14.188;2023-04-03T14:05:59;98373.94;;;8.06;46.84
68476;BME280;55464;48.266;14.188;2023-04-03T14:08:26;98386.25;;;8.09;47.61
68476;BME280;55464;48.266;14.188;2023-04-03T14:10:52;98385.13;;;8.10;47.70
68476;BME280;55464;48.266;14.188;2023-04-03T14:13:19;98377.34;;;8.03;46.88
68476;BME280;55464;48.266;14.188;2023-04-03T14:15:47;98379.00;;;7.90;45.86
68476;BME280;55464;48.266;14.188;2023-04-03T14:18:15;98373.84;;;7.89;45.60
68476;BME280;55464;48.266;14.188;2023-04-03T14:20:42;98374.28;;;7.82;47.08
68476;BME280;55464;48.266;14.188;2023-04-03T14:23:07;98378.94;;;7.82;46.91
68476;BME280;55464;48.266;14.188;2023-04-03T14:25:34;98375.22;;;7.78;46.44
68476;BME280;55464;48.266;14.188;2023-04-03T14:28:00;98388.44;;;7.75;46.85
68476;BME280;55464;48.266;14.188;2023-04-03T14:30:28;98388.69;;;7.65;47.21
68476;BME280;55464;48.266;14.188;2023-04-03T14:32:54;98388.41;;;7.53;45.35
68476;BME280;55464;48.266;14.188;2023-04-03T14:35:20;98380.78;;;7.50;46.02
68476;BME280;55464;48.266;14.188;2023-04-03T14:37:47;98378.16;;;7.45;46.04
68476;BME280;55464;48.266;14.188;2023-04-03T14:40:17;98383.97;;;7.43;46.73
68476;BME280;55464;48.266;14.188;2023-04-03T14:42:42;98382.25;;;7.47;46.77
68476;BME280;55464;48.266;14.188;2023-04-03T14:45:12;98377.16;;;7.41;46.43
68476;BME280;55464;48.266;14.188;2023-04-03T14:47:45;98386.69;;;7.43;47.54
68476;BME280;55464;48.266;14.188;2023-04-03T14:50:16;98377.28;;;7.35;47.79
68476;BME280;55464;48.266;14.188;2023-04-03T14:52:42;98385.59;;;7.44;47.61
68476;BME280;55464;48.266;14.188;2023-04-03T14:55:11;98400.22;;;7.39;46.91
68476;BME280;55464;48.266;14.188;2023-04-03T14:57:37;98386.75;;;7.29;45.60
68476;BME280;55464;48.266;14.188;2023-04-03T15:00:06;98375.06;;;7.24;45.65